createdAt,value
2018-12-15T00:00:15.045Z,101502.98
2018-12-15T00:02:43.889Z,101500.08
2018-12-15T00:05:12.780Z,101497.80
2018-12-15T00:07:41.680Z,101491.25
2018-12-15T00:10:10.764Z,101491.77
2018-12-15T00:12:39.745Z,101486.60
2018-12-15T00:15:09.740Z,101496.15
2018-12-15T00:17:38.659Z,101496.42
2018-12-15T00:20:08.501Z,101502.71
2018-12-15T00:22:37.346Z,101508.45
2018-12-15T00:25:06.229Z,101510.47
2018-12-15T00:27:35.126Z,101509.45
2018-12-15T00:30:04.147Z,101505.25
2018-12-15T00:32:32.993Z,101507.22
2018-12-15T00:35:01.850Z,101503.34
2018-12-15T00:37:30.662Z,101498.61
2018-12-15T00:39:59.504Z,101501.77
2018-12-15T00:42:32.837Z,101499.95
2018-12-15T00:45:01.702Z,101501.69
2018-12-15T00:47:30.660Z,101504.80
2018-12-15T00:49:59.549Z,101509.89
2018-12-15T00:52:28.389Z,101508.11
2018-12-15T00:54:57.231Z,101506.81
2018-12-15T00:57:26.145Z,101515.82
2018-12-15T00:59:55.068Z,101513.11
2018-12-15T01:02:23.926Z,101507.58
2018-12-15T01:04:52.784Z,101504.72
2018-12-15T01:07:21.667Z,101506.11
2018-12-15T01:09:50.675Z,101496.12
2018-12-15T01:12:19.568Z,101489.30
2018-12-15T01:14:48.411Z,101497.28
2018-12-15T01:17:20.495Z,101490.50
2018-12-15T01:19:49.933Z,101490.77
2018-12-15T01:22:18.776Z,101483.50
2018-12-15T01:24:47.628Z,101486.48
2018-12-15T01:27:16.606Z,101477.92
2018-12-15T01:29:45.462Z,101484.83
2018-12-15T01:32:14.381Z,101483.54
2018-12-15T01:34:43.261Z,101474.66
2018-12-15T01:37:12.082Z,101480.42
2018-12-15T01:39:40.914Z,101470.47
2018-12-15T01:42:09.825Z,101469.62
2018-12-15T01:44:38.636Z,101464.89
2018-12-15T01:47:07.488Z,101477.78
2018-12-15T01:49:36.356Z,101458.56
2018-12-15T01:52:05.176Z,101461.81
2018-12-15T01:54:34.126Z,101462.58
2018-12-15T01:57:03.010Z,101459.14
2018-12-15T01:59:32.035Z,101461.67
2018-12-15T02:02:00.885Z,101470.20
2018-12-15T02:04:29.762Z,101466.85
2018-12-15T02:06:58.609Z,101470.87
2018-12-15T02:09:27.705Z,101464.84
2018-12-15T02:11:56.566Z,101452.25
2018-12-15T02:14:25.739Z,101456.18
2018-12-15T02:16:54.566Z,101459.61
2018-12-15T02:19:23.409Z,101447.63
2018-12-15T02:21:52.302Z,101447.52
2018-12-15T02:24:21.212Z,101438.02
2018-12-15T02:26:50.071Z,101438.12
2018-12-15T02:29:18.901Z,101439.63
2018-12-15T02:31:47.908Z,101443.19
2018-12-15T02:34:16.729Z,101456.95
2018-12-15T02:36:45.564Z,101455.81
2018-12-15T02:39:14.522Z,101457.87
2018-12-15T02:41:47.215Z,101458.08
2018-12-15T02:44:14.218Z,101453.40
2018-12-15T02:46:43.106Z,101451.58
2018-12-15T02:49:11.915Z,101449.52
2018-12-15T02:51:40.752Z,101442.08
2018-12-15T02:54:09.617Z,101439.34
2018-12-15T02:56:38.537Z,101436.31
2018-12-15T02:59:07.436Z,101433.27
2018-12-15T03:01:36.245Z,101434.52
2018-12-15T03:04:05.325Z,101434.06
2018-12-15T03:06:34.157Z,101433.84
2018-12-15T03:09:02.994Z,101437.67
2018-12-15T03:11:31.969Z,101441.30
2018-12-15T03:14:00.812Z,101444.53
2018-12-15T03:16:29.681Z,101450.89
2018-12-15T03:19:05.482Z,101449.91
2018-12-15T03:21:34.469Z,101449.12
2018-12-15T03:24:03.349Z,101451.70
2018-12-15T03:26:32.371Z,101435.02
2018-12-15T03:29:01.236Z,101425.97
2018-12-15T03:31:30.299Z,101429.45
2018-12-15T03:33:59.112Z,101424.34
2018-12-15T03:36:27.981Z,101423.63
2018-12-15T03:38:56.804Z,101422.17
2018-12-15T03:41:25.768Z,101426.37
2018-12-15T03:43:54.747Z,101423.86
2018-12-15T03:46:23.565Z,101418.30
2018-12-15T03:48:52.496Z,101425.73
2018-12-15T03:51:21.381Z,101431.13
2018-12-15T03:53:50.204Z,101433.63
2018-12-15T03:56:19.021Z,101430.09
2018-12-15T03:58:48.026Z,101428.94
2018-12-15T04:01:16.862Z,101435.72
2018-12-15T04:03:45.703Z,101428.27
2018-12-15T04:06:14.656Z,101434.38
2018-12-15T04:08:43.478Z,101428.30
2018-12-15T04:11:12.296Z,101427.95
2018-12-15T04:13:41.197Z,101429.14
2018-12-15T04:16:10.044Z,101427.77
2018-12-15T04:18:38.988Z,101424.48
2018-12-15T04:21:07.853Z,101426.99
2018-12-15T04:23:36.672Z,101433.47
2018-12-15T04:26:05.525Z,101435.55
2018-12-15T04:28:34.367Z,101431.80
2018-12-15T04:31:03.253Z,101429.85
2018-12-15T04:33:32.097Z,101430.61
2018-12-15T04:36:07.734Z,101425.70
2018-12-15T04:38:36.700Z,101422.27
2018-12-15T04:41:05.609Z,101428.95
2018-12-15T04:43:34.466Z,101435.61
2018-12-15T04:46:03.308Z,101434.89
2018-12-15T04:48:32.138Z,101434.89
2018-12-15T04:51:01.041Z,101432.75
2018-12-15T04:53:29.855Z,101429.77
2018-12-15T04:55:58.693Z,101430.61
2018-12-15T04:58:27.558Z,101428.69
2018-12-15T05:00:56.420Z,101423.20
2018-12-15T05:03:25.261Z,101414.98
2018-12-15T05:05:54.153Z,101418.47
2018-12-15T05:08:22.973Z,101422.66
2018-12-15T05:10:51.791Z,101423.11
2018-12-15T05:13:20.669Z,101426.81
2018-12-15T05:15:49.543Z,101432.97
2018-12-15T05:18:18.646Z,101431.98
2018-12-15T05:20:47.704Z,101441.23
2018-12-15T05:23:16.547Z,101448.62
2018-12-15T05:25:45.401Z,101444.03
2018-12-15T05:28:14.308Z,101445.98
2018-12-15T05:30:43.168Z,101445.45
2018-12-15T05:33:11.983Z,101439.30
2018-12-15T05:35:40.873Z,101439.95
2018-12-15T05:38:09.697Z,101440.27
2018-12-15T05:40:38.563Z,101407.20
2018-12-15T05:43:07.408Z,101422.92
2018-12-15T05:45:36.316Z,101431.86
2018-12-15T05:48:05.149Z,101432.30
2018-12-15T05:50:33.997Z,101440.47
2018-12-15T05:53:02.892Z,101440.78
2018-12-15T05:55:31.729Z,101453.93
2018-12-15T05:58:00.554Z,101448.67
2018-12-15T06:00:29.457Z,101445.62
2018-12-15T06:02:58.328Z,101446.48
2018-12-15T06:05:27.349Z,101445.89
2018-12-15T06:07:56.240Z,101440.31
2018-12-15T06:10:25.523Z,101440.27
2018-12-15T06:12:54.359Z,101437.37
2018-12-15T06:15:23.178Z,101436.38
2018-12-15T06:17:52.058Z,101441.51
2018-12-15T06:20:20.920Z,101440.66
2018-12-15T06:22:49.737Z,101450.05
2018-12-15T06:25:20.305Z,101453.14
2018-12-15T06:27:49.138Z,101464.02
2018-12-15T06:30:17.996Z,101467.63
2018-12-15T06:32:47.026Z,101467.80
2018-12-15T06:35:15.872Z,101461.41
2018-12-15T06:37:44.741Z,101462.56
2018-12-15T06:40:14.119Z,101457.88
2018-12-15T06:42:42.939Z,101459.97
2018-12-15T06:45:11.829Z,101467.03
2018-12-15T06:47:40.729Z,101461.52
2018-12-15T06:50:09.709Z,101457.88
2018-12-15T06:52:38.634Z,101455.69
2018-12-15T06:55:08.865Z,101466.84
2018-12-15T06:57:37.705Z,101474.13
2018-12-15T07:00:06.958Z,101469.09
2018-12-15T07:02:35.798Z,101466.16
2018-12-15T07:05:05.040Z,101465.25
2018-12-15T07:07:33.932Z,101466.15
2018-12-15T07:10:03.366Z,101455.94
2018-12-15T07:12:32.196Z,101464.30
2018-12-15T07:15:01.032Z,101460.47
2018-12-15T07:17:29.886Z,101459.77
2018-12-15T07:19:58.701Z,101462.20
2018-12-15T07:22:27.635Z,101478.01
2018-12-15T07:24:56.523Z,101482.73
2018-12-15T07:27:25.364Z,101487.79
2018-12-15T07:29:54.295Z,101488.73
2018-12-15T07:32:23.121Z,101482.20
2018-12-15T07:34:52.009Z,101493.21
2018-12-15T07:37:20.928Z,101495.47
2018-12-15T07:39:50.697Z,101490.94
2018-12-15T07:42:19.537Z,101485.89
2018-12-15T07:44:51.018Z,101479.50
2018-12-15T07:47:19.873Z,101478.66
2018-12-15T07:49:48.700Z,101477.32
2018-12-15T07:52:17.597Z,101472.92
2018-12-15T07:54:46.489Z,101477.91
2018-12-15T07:57:15.700Z,101470.58
2018-12-15T07:59:44.568Z,101466.75
2018-12-15T08:02:13.556Z,101464.25
2018-12-15T08:04:42.492Z,101464.55
2018-12-15T08:07:11.550Z,101461.77
2018-12-15T08:09:40.412Z,101451.60
2018-12-15T08:12:14.364Z,101452.24
2018-12-15T08:14:43.271Z,101452.90
2018-12-15T08:17:12.156Z,101437.78
2018-12-15T08:19:41.063Z,101445.66
2018-12-15T08:22:09.905Z,101450.20
2018-12-15T08:24:38.910Z,101456.92
2018-12-15T08:27:07.795Z,101455.98
2018-12-15T08:29:36.709Z,101458.06
2018-12-15T08:32:05.771Z,101458.16
2018-12-15T08:34:34.666Z,101450.00
2018-12-15T08:37:03.524Z,101445.57
2018-12-15T08:39:32.395Z,101450.30
2018-12-15T08:42:01.239Z,101450.64
2018-12-15T08:44:30.088Z,101448.13
2018-12-15T08:46:59.061Z,101433.78
2018-12-15T08:49:27.920Z,101431.85
2018-12-15T08:51:57.993Z,101432.36
2018-12-15T08:54:26.812Z,101427.99
2018-12-15T08:56:55.616Z,101425.42
2018-12-15T08:59:25.769Z,101416.68
2018-12-15T09:01:54.608Z,101416.44
2018-12-15T09:04:23.412Z,101407.61
2018-12-15T09:06:52.204Z,101399.67
2018-12-15T09:09:22.268Z,101395.55
2018-12-15T09:11:51.078Z,101399.31
2018-12-15T09:14:19.958Z,101407.00
2018-12-15T09:16:48.862Z,101403.11
2018-12-15T09:19:17.730Z,101391.11
2018-12-15T09:21:47.844Z,101393.25
2018-12-15T09:24:16.644Z,101387.95
2018-12-15T09:26:45.444Z,101395.25
2018-12-15T09:29:14.305Z,101390.52
2018-12-15T09:31:43.209Z,101396.75
2018-12-15T09:34:12.079Z,101395.19
2018-12-15T09:36:40.915Z,101393.92
2018-12-15T09:39:09.709Z,101396.69
2018-12-15T09:41:38.557Z,101410.44
2018-12-15T09:44:08.608Z,101400.06
2018-12-15T09:46:37.444Z,101400.55
2018-12-15T09:49:06.276Z,101396.58
2018-12-15T09:51:35.123Z,101385.89
2018-12-15T09:54:03.976Z,101390.88
2018-12-15T09:56:32.884Z,101382.80
2018-12-15T09:59:01.905Z,101383.55
2018-12-15T10:01:30.742Z,101381.80
2018-12-15T10:03:59.620Z,101377.45
2018-12-15T10:06:28.457Z,101378.42
2018-12-15T10:08:57.258Z,101375.54
2018-12-15T10:11:26.112Z,101375.22
2018-12-15T10:13:55.045Z,101368.27
2018-12-15T10:16:23.856Z,101376.67
2018-12-15T10:18:52.854Z,101367.43
2018-12-15T10:21:21.677Z,101371.72
2018-12-15T10:23:50.493Z,101369.73
2018-12-15T10:26:19.325Z,101365.22
2018-12-15T10:28:48.118Z,101360.13
2018-12-15T10:31:22.222Z,101361.03
2018-12-15T10:33:51.021Z,101350.27
2018-12-15T10:36:19.805Z,101359.80
2018-12-15T10:38:48.627Z,101347.28
2018-12-15T10:41:17.537Z,101352.88
2018-12-15T10:43:46.328Z,101349.85
2018-12-15T10:46:15.166Z,101353.65
2018-12-15T10:48:43.993Z,101343.65
2018-12-15T10:51:12.852Z,101348.00
2018-12-15T10:53:42.893Z,101345.17
2018-12-15T10:56:11.880Z,101336.92
2018-12-15T10:58:40.743Z,101337.30
2018-12-15T11:01:14.780Z,101337.33
2018-12-15T11:03:44.936Z,101328.55
2018-12-15T11:06:13.737Z,101323.02
2018-12-15T11:08:42.716Z,101316.89
2018-12-15T11:11:12.741Z,101319.14
2018-12-15T11:13:47.994Z,101316.85
2018-12-15T11:16:16.790Z,101315.22
2018-12-15T11:18:45.604Z,101305.30
2018-12-15T11:21:14.407Z,101312.41
2018-12-15T11:23:43.259Z,101317.76
2018-12-15T11:26:12.130Z,101317.52
2018-12-15T11:28:41.012Z,101302.88
2018-12-15T11:31:09.983Z,101310.14
2018-12-15T11:33:38.809Z,101317.14
2018-12-15T11:36:07.626Z,101318.28
2018-12-15T11:38:36.561Z,101329.95
2018-12-15T11:41:05.416Z,101325.84
2018-12-15T11:43:34.269Z,101321.49
2018-12-15T11:46:03.076Z,101330.58
2018-12-15T11:48:33.192Z,101327.30
2018-12-15T11:51:02.086Z,101324.19
2018-12-15T11:53:30.889Z,101330.45
2018-12-15T11:55:59.750Z,101327.36
2018-12-15T11:58:28.545Z,101318.05
2018-12-15T12:00:57.453Z,101314.03
2018-12-15T12:03:26.311Z,101315.77
2018-12-15T12:05:55.181Z,101313.98
2018-12-15T12:08:24.020Z,101321.70
2018-12-15T12:10:52.822Z,101315.37
2018-12-15T12:13:21.621Z,101311.80
2018-12-15T12:15:51.816Z,101312.89
2018-12-15T12:18:20.628Z,101317.98
2018-12-15T12:20:49.478Z,101319.67
2018-12-15T12:23:18.287Z,101321.27
2018-12-15T12:25:47.089Z,101318.53
2018-12-15T12:28:17.138Z,101323.27
2018-12-15T12:30:46.000Z,101327.16
2018-12-15T12:33:14.875Z,101322.33
2018-12-15T12:35:43.808Z,101330.44
2018-12-15T12:38:12.686Z,101334.64
2018-12-15T12:40:41.620Z,101333.33
2018-12-15T12:43:10.519Z,101329.89
2018-12-15T12:45:39.424Z,101330.97
2018-12-15T12:48:08.224Z,101331.13
2018-12-15T12:50:38.285Z,101330.38
2018-12-15T12:53:07.191Z,101331.67
2018-12-15T12:55:36.151Z,101330.12
2018-12-15T12:58:05.088Z,101338.56
2018-12-15T13:00:33.961Z,101347.22
2018-12-15T13:03:02.816Z,101343.69
2018-12-15T13:05:31.604Z,101343.57
2018-12-15T13:08:00.434Z,101347.73
2018-12-15T13:10:29.233Z,101341.73
2018-12-15T13:12:58.050Z,101348.87
2018-12-15T13:15:28.261Z,101348.75
2018-12-15T13:17:57.056Z,101350.69
2018-12-15T13:20:25.889Z,101349.63
2018-12-15T13:22:54.721Z,101336.30
2018-12-15T13:25:23.517Z,101327.17
2018-12-15T13:27:52.400Z,101341.25
2018-12-15T13:30:21.526Z,101349.27
2018-12-15T13:32:50.406Z,101344.61
2018-12-15T13:35:19.233Z,101335.47
2018-12-15T13:37:49.381Z,101348.05
2018-12-15T13:40:18.207Z,101343.25
2018-12-15T13:42:47.078Z,101336.20
2018-12-15T13:45:16.150Z,101347.58
2018-12-15T13:47:45.007Z,101349.45
2018-12-15T13:50:13.893Z,101350.92
2018-12-15T13:52:44.227Z,101344.47
2018-12-15T13:55:13.227Z,101337.60
2018-12-15T13:57:42.858Z,101336.38
2018-12-15T14:00:11.978Z,101347.34
2018-12-15T14:02:40.843Z,101342.31
2018-12-15T14:05:09.732Z,101341.63
2018-12-15T14:07:38.597Z,101350.63
2018-12-15T14:10:07.495Z,101351.69
2018-12-15T14:12:36.409Z,101355.42
2018-12-15T14:15:05.526Z,101348.80
2018-12-15T14:17:34.386Z,101343.77
2018-12-15T14:20:03.236Z,101347.86
2018-12-15T14:22:32.044Z,101353.34
2018-12-15T14:25:00.841Z,101344.19
2018-12-15T14:27:29.664Z,101345.54
2018-12-15T14:29:58.468Z,101343.04
2018-12-15T14:32:27.287Z,101342.02
2018-12-15T14:34:56.116Z,101348.88
2018-12-15T14:37:25.054Z,101344.91
2018-12-15T14:39:53.862Z,101347.34
2018-12-15T14:42:22.703Z,101351.38
2018-12-15T14:44:51.495Z,101338.94
2018-12-15T14:47:20.305Z,101346.20
2018-12-15T14:49:50.652Z,101350.15
2018-12-15T14:52:19.655Z,101339.63
2018-12-15T14:54:48.517Z,101350.05
2018-12-15T14:57:21.471Z,101346.95
2018-12-15T14:59:50.362Z,101342.97
2018-12-15T15:02:19.244Z,101343.37
2018-12-15T15:04:48.153Z,101343.77
2018-12-15T15:07:17.036Z,101338.48
2018-12-15T15:09:45.928Z,101329.27
2018-12-15T15:12:14.841Z,101333.91
2018-12-15T15:14:43.759Z,101327.28
2018-12-15T15:17:12.674Z,101337.70
2018-12-15T15:19:41.535Z,101335.05
2018-12-15T15:22:10.359Z,101331.73
2018-12-15T15:24:39.220Z,101330.17
2018-12-15T15:27:10.064Z,101330.83
2018-12-15T15:29:38.934Z,101338.84
2018-12-15T15:32:07.797Z,101321.13
2018-12-15T15:34:36.793Z,101350.95
2018-12-15T15:37:05.671Z,101335.80
2018-12-15T15:39:34.512Z,101332.61
2018-12-15T15:42:04.686Z,101323.09
2018-12-15T15:44:33.532Z,101330.32
2018-12-15T15:47:02.429Z,101328.72
2018-12-15T15:49:31.274Z,101317.70
2018-12-15T15:52:00.228Z,101324.84
2018-12-15T15:54:29.041Z,101328.48
2018-12-15T15:56:57.896Z,101331.47
2018-12-15T15:59:26.686Z,101327.84
2018-12-15T16:01:55.520Z,101336.85
2018-12-15T16:04:25.926Z,101336.40
2018-12-15T16:06:54.749Z,101334.90
2018-12-15T16:09:23.613Z,101345.41
2018-12-15T16:11:52.556Z,101343.88
2018-12-15T16:14:21.352Z,101335.35
2018-12-15T16:16:50.136Z,101337.16
2018-12-15T16:21:52.919Z,101331.61
2018-12-15T16:24:24.856Z,101336.40
2018-12-15T16:26:53.669Z,101334.32
2018-12-15T16:29:22.636Z,101328.33
2018-12-15T16:31:52.760Z,101335.37
2018-12-15T16:34:21.553Z,101333.72
2018-12-15T16:36:50.365Z,101325.85
2018-12-15T16:39:20.665Z,101330.19
2018-12-15T16:41:49.464Z,101341.79
2018-12-15T16:44:18.353Z,101339.80
2018-12-15T16:46:48.772Z,101334.92
2018-12-15T16:49:17.649Z,101336.42
2018-12-15T16:51:46.562Z,101333.09
2018-12-15T16:54:16.971Z,101325.41
2018-12-15T16:56:45.957Z,101325.86
2018-12-15T16:59:14.753Z,101332.64
2018-12-15T17:01:45.205Z,101334.13
2018-12-15T17:04:14.025Z,101318.44
2018-12-15T17:06:42.842Z,101322.05
2018-12-15T17:09:11.805Z,101327.54
2018-12-15T17:11:40.617Z,101322.75
2018-12-15T17:14:09.408Z,101323.35
2018-12-15T17:16:38.261Z,101321.01
2018-12-15T17:19:07.102Z,101309.26
2018-12-15T17:21:35.955Z,101307.66
2018-12-15T17:24:04.945Z,101318.47
2018-12-15T17:26:33.746Z,101310.10
2018-12-15T17:29:02.655Z,101303.08
2018-12-15T17:31:32.949Z,101296.84
2018-12-15T17:34:01.841Z,101288.44
2018-12-15T17:36:30.700Z,101274.83
2018-12-15T17:38:59.835Z,101291.06
2018-12-15T17:41:28.697Z,101293.50
2018-12-15T17:43:57.673Z,101293.59
2018-12-15T17:46:26.578Z,101288.56
2018-12-15T17:48:55.479Z,101294.29
2018-12-15T17:51:25.718Z,101297.48
2018-12-15T17:53:54.647Z,101296.48
2018-12-15T17:56:23.491Z,101296.19
2018-12-15T17:58:53.625Z,101295.19
2018-12-15T18:01:22.447Z,101293.74
2018-12-15T18:03:51.389Z,101301.01
2018-12-15T18:06:20.317Z,101292.45
2018-12-15T18:08:49.189Z,101289.02
2018-12-15T18:11:18.000Z,101284.98
2018-12-15T18:13:46.813Z,101299.23
2018-12-15T18:16:15.621Z,101303.56
2018-12-15T18:18:44.458Z,101309.66
2018-12-15T18:21:13.265Z,101313.48
2018-12-15T18:23:42.165Z,101302.03
2018-12-15T18:26:10.988Z,101312.30
2018-12-15T18:28:39.817Z,101313.30
2018-12-15T18:31:09.208Z,101301.69
2018-12-15T18:33:38.546Z,101309.41
2018-12-15T18:36:07.384Z,101307.81
2018-12-15T18:38:36.263Z,101308.90
2018-12-15T18:41:05.156Z,101316.18
2018-12-15T18:43:34.032Z,101311.81
2018-12-15T18:46:02.930Z,101312.95
2018-12-15T18:48:31.863Z,101304.94
2018-12-15T18:51:00.700Z,101312.41
2018-12-15T18:53:29.601Z,101309.82
2018-12-15T18:55:58.466Z,101318.44
2018-12-15T18:58:27.322Z,101315.70
2018-12-15T19:00:56.215Z,101302.84
2018-12-15T19:03:25.102Z,101303.84
2018-12-15T19:05:53.970Z,101301.77
2018-12-15T19:08:24.405Z,101298.72
2018-12-15T19:10:53.290Z,101298.17
2018-12-15T19:13:22.156Z,101304.91
2018-12-15T19:15:56.454Z,101308.79
2018-12-15T19:18:25.359Z,101311.63
2018-12-15T19:20:54.213Z,101308.22
2018-12-15T19:23:23.086Z,101300.16
2018-12-15T19:25:51.932Z,101297.78
2018-12-15T19:28:22.161Z,101308.53
2018-12-15T19:30:51.018Z,101311.81
2018-12-15T19:33:19.923Z,101308.92
2018-12-15T19:35:48.834Z,101314.61
2018-12-15T19:38:17.702Z,101316.39
2018-12-15T19:40:46.552Z,101315.30
2018-12-15T19:43:16.669Z,101320.37
2018-12-15T19:45:45.615Z,101316.09
2018-12-15T19:48:14.459Z,101307.67
2018-12-15T19:50:43.301Z,101308.97
2018-12-15T19:53:12.101Z,101315.55
2018-12-15T19:55:41.128Z,101310.03
2018-12-15T19:58:09.985Z,101310.58
2018-12-15T20:00:38.798Z,101303.91
2018-12-15T20:03:07.669Z,101312.31
2018-12-15T20:05:36.548Z,101311.66
2018-12-15T20:08:05.429Z,101312.61
2018-12-15T20:10:34.385Z,101316.38
2018-12-15T20:13:03.269Z,101312.11
2018-12-15T20:15:32.166Z,101315.20
2018-12-15T20:18:01.040Z,101312.80
2018-12-15T20:20:31.113Z,101304.44
2018-12-15T20:25:38.529Z,101303.59
2018-12-15T20:28:07.369Z,101296.61
2018-12-15T20:30:37.469Z,101301.94
2018-12-15T20:33:06.342Z,101308.66
2018-12-15T20:35:35.189Z,101313.02
2018-12-15T20:38:04.079Z,101318.20
2018-12-15T20:40:32.995Z,101318.41
2018-12-15T20:43:01.924Z,101306.22
2018-12-15T20:45:30.795Z,101308.30
2018-12-15T20:47:59.646Z,101309.34
2018-12-15T20:50:28.529Z,101306.81
2018-12-15T20:52:57.481Z,101315.83
2018-12-15T20:55:26.290Z,101318.47
2018-12-15T20:57:55.165Z,101316.34
2018-12-15T21:00:24.037Z,101306.88
2018-12-15T21:02:52.934Z,101309.70
2018-12-15T21:05:21.813Z,101318.28
2018-12-15T21:07:50.702Z,101323.02
2018-12-15T21:10:19.572Z,101322.71
2018-12-15T21:12:48.457Z,101312.50
2018-12-15T21:15:26.705Z,101315.14
2018-12-15T21:17:55.545Z,101309.45
2018-12-15T21:20:24.428Z,101305.88
2018-12-15T21:22:53.367Z,101321.17
2018-12-15T21:25:22.185Z,101305.63
2018-12-15T21:27:51.000Z,101305.63
2018-12-15T21:30:20.137Z,101296.39
2018-12-15T21:32:49.053Z,101294.73
2018-12-15T21:35:18.303Z,101291.94
2018-12-15T21:37:47.555Z,101292.84
2018-12-15T21:40:16.775Z,101286.33
2018-12-15T21:42:46.390Z,101280.48
2018-12-15T21:45:15.703Z,101281.93
2018-12-15T21:47:44.745Z,101270.13
2018-12-15T21:50:14.881Z,101273.70
2018-12-15T21:52:44.351Z,101270.69
2018-12-15T21:55:14.165Z,101275.39
2018-12-15T21:57:43.065Z,101276.23
2018-12-15T22:00:12.049Z,101279.38
2018-12-15T22:02:40.954Z,101275.34
2018-12-15T22:05:09.802Z,101274.89
2018-12-15T22:07:38.729Z,101261.27
2018-12-15T22:10:10.481Z,101251.59
2018-12-15T22:12:39.834Z,101256.63
2018-12-15T22:15:09.388Z,101250.25
2018-12-15T22:17:40.011Z,101247.02
2018-12-15T22:20:10.582Z,101247.77
2018-12-15T22:22:39.430Z,101250.76
2018-12-15T22:25:08.278Z,101256.24
2018-12-15T22:27:37.499Z,101254.80
2018-12-15T22:30:07.596Z,101250.16
2018-12-15T22:32:36.472Z,101247.50
2018-12-15T22:35:05.956Z,101250.09
2018-12-15T22:37:35.724Z,101246.27
2018-12-15T22:40:05.559Z,101236.98
2018-12-15T22:42:35.178Z,101233.77
2018-12-15T22:45:05.465Z,101250.55
2018-12-15T22:47:34.405Z,101252.14
2018-12-15T22:50:03.327Z,101259.09
2018-12-15T22:52:32.195Z,101251.70
2018-12-15T22:55:01.041Z,101254.36
2018-12-15T22:57:29.938Z,101253.78
2018-12-15T23:02:33.048Z,101243.00
2018-12-15T23:05:01.933Z,101255.66
2018-12-15T23:07:30.835Z,101247.27
2018-12-15T23:09:59.685Z,101246.63
2018-12-15T23:12:28.661Z,101237.33
2018-12-15T23:14:57.568Z,101233.59
2018-12-15T23:17:26.431Z,101237.02
2018-12-15T23:19:56.693Z,101233.05
2018-12-15T23:22:25.688Z,101224.92
2018-12-15T23:24:54.700Z,101220.31
2018-12-15T23:27:23.616Z,101225.70
2018-12-15T23:29:52.436Z,101222.91
2018-12-15T23:32:21.278Z,101215.59
2018-12-15T23:34:50.150Z,101215.38
2018-12-15T23:37:18.974Z,101218.11
2018-12-15T23:39:47.813Z,101206.67
2018-12-15T23:42:16.740Z,101204.47
2018-12-15T23:44:45.569Z,101215.13
2018-12-15T23:47:14.994Z,101207.97
2018-12-15T23:49:43.857Z,101208.95
2018-12-15T23:52:12.721Z,101218.28
2018-12-15T23:54:41.620Z,101206.33
2018-12-15T23:57:10.436Z,101217.59
2018-12-15T23:59:39.465Z,101216.15
